Mabton, WA

8:46 PM PDT on October 01, 2014 (GMT -0700)
Mabton 2 SE | Change Station
CLOSE
Current Station
Personal Weather Station
Location: Mabton, WA
Elevation: 725 ft
Nearby Weather Stations

Elev 725 ft 46.20 °N, 119.96 °W | Updated 6 minutes ago

Partly Cloudy
Partly Cloudy
57.8 °F
Feels Like 57.8 °F
N
0.0
Wind Variable Wind from SW
Gusts 0.0 mph

Today
High -- | Low -- °F
--% Chance of Precip.
Yesterday
High -- | Low -- °F
Precip. -- in
6:58 AM 6:39 PM
First Quarter, 54% visible
Pressure 30.08 in
Visibility 10.0 miles
Clouds Clear
Dew Point 44 °F
Humidity 59%
Rainfall 0.00 in
Snow Depth 0 in , 0 in , 0 in
UV 0 out of 12
Pollen 1.90 out of 12
Air Quality Not available.
Flu Activity Not available.
METAR KYKM 020253Z 30005KT 10SM CLR 17/04 A3008 RMK AO2 SLP186 T01670044 53009

More Conditions Fewer Conditions

Pressure 30.08 in
Visibility 10.0 miles
Clouds Clear
Dew Point 44 °F
Humidity 59%
Rainfall 0.00 in
Snow Depth 0 in , 0 in , 0 in
UV 0 out of 12
Pollen 1.90 out of 12
Air Quality Not available.
Flu Activity Not available.
METAR KYKM 020253Z 30005KT 10SM CLR 17/04 A3008 RMK AO2 SLP186 T01670044 53009

More Conditions Fewer Conditions

10-Day Weather Forecast

Almanac

Astronomy

Oct. 01, 2014 Rise Set
Actual Time 6:58 AM PDT 6:39 PM PDT
Civil Twilight 6:28 AM PDT 7:09 PM PDT
Nautical Twilight 5:53 AM PDT 7:44 PM PDT
Astronomical Twilight 5:18 AM PDT 8:19 PM PDT
Moon 2:18 PM PDT (10/1) No Moon Set
Length of Visible Light 12h 40m
Length of Day
11h 41m
Tomorrow will be 3m 15s shorter.
First Quarter, 54% of the Moon is Illuminated
Today
First Quarter
Oct 8
Full
Oct 15
Last Quarter
Oct 23
New
Oct 30
First Quarter

Today's Extremes

State Highs State Lows

Community

WunderPhotos

Upload Photos

1,758,170 photos uploaded!

Nearby

Snow Depth

Station Depth Elevation
Spirit Lake 0 in 3120 ft
Mount Gardner 0 in 3000 ft
White Pass E.S. 0 in 4500 ft
Blewett Pass 0 in 4270 ft
Touchet 0 in 5530 ft

Earthquake Activity

City Distance Mag. Time & Date
No recent earthquake activity has been reported nearby.
Minimum magnitude displayed is 2.5.

Coastal Water Temperatures

Place Temperature
No Stations Reporting

Nearby Weather Stations